< < Back
Terminal Aerodrome Forecast


Current Version              Previous Versions:   1  2  3  4  5  6  7  8  9  

Terminal Aerodrome Forecast

418
FTUS44 KMRX 182320
TAFTYS
TAF
KTYS 182320Z 1900/1924 04006KT P6SM BKN100=

Latest METAR

576
SAUS80 KWBC 191700
MTRTYS
METAR KTYS 191653Z 10008KT 10SM SCT100 OVC250 17/04 A3015 RMK AO2 SLP206
T01720044


USA.gov is the U.S. government's official web portal to all federal, state and local government web resources and services.